createdAt,value
2022-08-03T00:02:34.174Z,48.01
2022-08-03T00:05:37.855Z,48.10
2022-08-03T00:08:42.218Z,47.98
2022-08-03T00:11:45.100Z,47.94
2022-08-03T00:14:48.022Z,48.12
2022-08-03T00:17:52.782Z,47.95
2022-08-03T00:20:56.938Z,47.89
2022-08-03T00:24:01.481Z,48.13
2022-08-03T00:27:04.509Z,48.05
2022-08-03T00:30:08.943Z,48.36
2022-08-03T00:33:11.888Z,48.32
2022-08-03T00:36:16.853Z,48.32
2022-08-03T00:39:21.059Z,48.45
2022-08-03T00:42:24.032Z,48.26
2022-08-03T00:45:33.710Z,48.41
2022-08-03T00:48:36.654Z,48.18
2022-08-03T00:51:39.818Z,48.18
2022-08-03T00:54:44.282Z,48.54
2022-08-03T00:57:48.021Z,48.33
2022-08-03T01:00:51.162Z,48.28
2022-08-03T01:03:54.209Z,48.51
2022-08-03T01:07:04.912Z,48.34
2022-08-03T01:10:24.919Z,48.24
2022-08-03T01:14:01.661Z,48.22
2022-08-03T01:17:03.171Z,48.35
2022-08-03T01:20:10.642Z,48.34
2022-08-03T01:23:42.521Z,48.55
2022-08-03T01:27:05.035Z,48.39
2022-08-03T01:30:11.983Z,48.37
2022-08-03T01:33:20.101Z,48.42
2022-08-03T01:36:25.759Z,48.42
2022-08-03T01:39:32.890Z,48.52
2022-08-03T01:42:37.710Z,48.45
2022-08-03T01:45:42.522Z,48.71
2022-08-03T01:48:47.239Z,48.41
2022-08-03T01:51:58.694Z,48.32
2022-08-03T01:55:08.793Z,48.39
2022-08-03T01:58:14.765Z,48.68
2022-08-03T02:01:22.696Z,48.71
2022-08-03T02:04:26.874Z,48.78
2022-08-03T02:07:31.518Z,48.53
2022-08-03T02:10:36.470Z,48.72
2022-08-03T02:13:40.594Z,48.58
2022-08-03T02:16:46.584Z,48.64
2022-08-03T02:19:51.722Z,48.75
2022-08-03T02:22:54.765Z,48.78
2022-08-03T02:26:01.943Z,48.94
2022-08-03T02:29:12.389Z,48.86
2022-08-03T02:32:21.455Z,48.61
2022-08-03T02:35:27.420Z,48.70
2022-08-03T02:38:40.400Z,48.78
2022-08-03T02:41:47.239Z,48.84
2022-08-03T02:44:53.608Z,48.91
2022-08-03T02:48:01.862Z,48.89
2022-08-03T02:51:06.378Z,49.17
2022-08-03T02:54:10.647Z,49.11
2022-08-03T02:57:15.411Z,49.10
2022-08-03T03:00:19.638Z,48.95
2022-08-03T03:03:37.234Z,49.08
2022-08-03T03:06:47.931Z,48.91
2022-08-03T03:09:52.147Z,48.87
2022-08-03T03:12:57.887Z,49.22
2022-08-03T03:16:04.095Z,49.05
2022-08-03T03:19:09.394Z,49.14
2022-08-03T03:22:13.830Z,49.03
2022-08-03T03:25:17.381Z,49.10
2022-08-03T03:28:20.826Z,49.35
2022-08-03T03:31:24.261Z,49.20
2022-08-03T03:34:30.144Z,49.08
2022-08-03T03:37:33.651Z,49.18
2022-08-03T03:40:36.674Z,49.17
2022-08-03T03:43:39.757Z,49.08
2022-08-03T03:46:43.095Z,49.23
2022-08-03T03:49:48.129Z,49.17
2022-08-03T03:52:51.251Z,49.25
2022-08-03T03:55:59.274Z,49.12
2022-08-03T03:59:05.718Z,49.40
2022-08-03T04:02:09.719Z,49.44
2022-08-03T04:05:32.549Z,49.45
2022-08-03T04:08:49.531Z,49.33
2022-08-03T04:11:54.189Z,49.39
2022-08-03T04:14:59.660Z,49.10
2022-08-03T04:18:04.706Z,49.29
2022-08-03T04:21:12.256Z,49.41
2022-08-03T04:24:16.593Z,49.20
2022-08-03T04:27:25.788Z,49.43
2022-08-03T04:30:29.953Z,49.28
2022-08-03T04:33:35.619Z,49.19
2022-08-03T04:36:48.855Z,49.15
2022-08-03T04:39:56.967Z,49.39
2022-08-03T04:43:01.700Z,49.25
2022-08-03T04:46:05.954Z,49.38
2022-08-03T04:49:09.237Z,49.52
2022-08-03T04:52:16.023Z,49.59
2022-08-03T04:55:27.308Z,49.51
2022-08-03T04:58:30.228Z,49.32
2022-08-03T05:01:33.118Z,49.35
2022-08-03T05:04:38.062Z,49.38
2022-08-03T05:07:42.408Z,49.37
2022-08-03T05:10:45.404Z,49.42
2022-08-03T05:13:48.677Z,49.25
2022-08-03T05:16:51.525Z,49.22
2022-08-03T05:19:54.560Z,49.29
2022-08-03T05:22:59.772Z,49.23
2022-08-03T05:26:02.773Z,49.37
2022-08-03T05:29:05.952Z,49.28
2022-08-03T05:32:09.007Z,49.37
2022-08-03T05:35:56.195Z,49.37
2022-08-03T05:38:36.359Z,49.56
2022-08-03T05:41:39.211Z,49.18
2022-08-03T05:44:42.158Z,49.10
2022-08-03T05:47:45.211Z,49.54
2022-08-03T05:50:48.153Z,49.01
2022-08-03T05:53:52.476Z,49.26
2022-08-03T05:56:55.503Z,49.15
2022-08-03T05:59:59.006Z,49.14
2022-08-03T06:03:02.395Z,48.94
2022-08-03T06:06:05.831Z,49.00
2022-08-03T06:09:10.801Z,49.17
2022-08-03T06:12:14.266Z,49.23
2022-08-03T06:15:18.683Z,49.43
2022-08-03T06:18:21.629Z,49.61
2022-08-03T06:21:24.553Z,49.22
2022-08-03T06:24:32.829Z,49.47
2022-08-03T06:27:37.647Z,49.46
2022-08-03T06:30:41.577Z,49.29
2022-08-03T06:34:22.848Z,49.25
2022-08-03T06:37:07.497Z,49.49
2022-08-03T06:40:13.983Z,49.71
2022-08-03T06:43:17.009Z,49.53
2022-08-03T06:46:20.556Z,49.65
2022-08-03T06:49:23.595Z,49.67
2022-08-03T06:52:37.828Z,49.70
2022-08-03T06:55:42.838Z,49.74
2022-08-03T06:58:46.954Z,49.94
2022-08-03T07:01:50.082Z,49.96
2022-08-03T07:04:53.001Z,50.12
2022-08-03T07:07:57.744Z,50.26
2022-08-03T07:11:02.501Z,50.04
2022-08-03T07:14:05.903Z,49.49
2022-08-03T07:17:11.987Z,49.50
2022-08-03T07:20:15.308Z,49.31
2022-08-03T07:23:19.260Z,49.83
2022-08-03T07:26:23.810Z,49.08
2022-08-03T07:29:26.727Z,49.01
2022-08-03T07:32:31.463Z,48.49
2022-08-03T07:35:34.777Z,48.26
2022-08-03T07:38:37.845Z,47.99
2022-08-03T07:41:42.331Z,47.06
2022-08-03T07:44:45.319Z,47.49
2022-08-03T07:47:53.478Z,47.21
2022-08-03T07:50:56.948Z,48.77
2022-08-03T07:54:00.925Z,49.50
2022-08-03T07:57:05.406Z,49.97
2022-08-03T08:00:13.748Z,50.09
2022-08-03T08:03:16.617Z,49.67
2022-08-03T08:06:19.648Z,49.74
2022-08-03T08:09:23.501Z,49.91
2022-08-03T08:12:27.724Z,50.26
2022-08-03T08:15:31.631Z,50.04
2022-08-03T08:18:34.516Z,50.19
2022-08-03T08:21:54.009Z,50.08
2022-08-03T08:25:01.290Z,49.70
2022-08-03T08:28:29.416Z,49.91
2022-08-03T08:31:29.031Z,49.65
2022-08-03T08:34:32.414Z,49.74
2022-08-03T08:37:35.992Z,49.49
2022-08-03T08:40:38.841Z,49.36
2022-08-03T08:43:43.365Z,49.41
2022-08-03T08:46:47.008Z,49.64
2022-08-03T08:50:09.199Z,49.38
2022-08-03T08:53:17.406Z,49.66
2022-08-03T08:56:25.469Z,49.55
2022-08-03T08:59:48.337Z,49.25
2022-08-03T09:02:52.601Z,49.50
2022-08-03T09:05:56.505Z,49.45
2022-08-03T09:08:59.781Z,49.37
2022-08-03T09:12:21.118Z,49.45
2022-08-03T09:15:29.132Z,49.63
2022-08-03T09:18:33.175Z,49.58
2022-08-03T09:21:36.747Z,49.34
2022-08-03T09:25:21.578Z,49.64
2022-08-03T09:28:32.439Z,49.46
2022-08-03T09:31:46.000Z,49.43
2022-08-03T09:34:50.063Z,49.75
2022-08-03T09:38:13.581Z,49.51
2022-08-03T09:41:20.258Z,49.69
2022-08-03T09:44:35.681Z,49.48
2022-08-03T09:47:44.728Z,49.43
2022-08-03T09:50:58.740Z,49.66
2022-08-03T09:54:20.288Z,49.72
2022-08-03T09:57:24.764Z,49.37
2022-08-03T10:00:27.609Z,49.62
2022-08-03T10:03:34.988Z,49.34
2022-08-03T10:06:37.835Z,49.40
2022-08-03T10:09:55.383Z,49.53
2022-08-03T10:12:58.358Z,49.54
2022-08-03T10:16:22.241Z,49.48
2022-08-03T10:19:26.650Z,49.77
2022-08-03T10:22:33.943Z,49.80
2022-08-03T10:25:40.643Z,49.47
2022-08-03T10:28:50.301Z,49.80
2022-08-03T10:31:57.716Z,49.54
2022-08-03T10:35:19.896Z,49.45
2022-08-03T10:38:30.234Z,49.52
2022-08-03T10:41:36.209Z,49.55
2022-08-03T10:44:42.376Z,49.57
2022-08-03T10:47:46.277Z,49.40
2022-08-03T10:50:51.969Z,49.80
2022-08-03T10:53:55.827Z,49.45
2022-08-03T10:57:16.127Z,49.68
2022-08-03T11:00:22.332Z,49.59
2022-08-03T11:03:25.297Z,49.49
2022-08-03T11:06:37.408Z,49.62
2022-08-03T11:09:42.949Z,49.56
2022-08-03T11:12:46.867Z,49.67
2022-08-03T11:15:52.137Z,49.58
2022-08-03T11:18:59.611Z,49.43
2022-08-03T11:22:03.894Z,49.72
2022-08-03T11:25:07.899Z,49.55
2022-08-03T11:28:30.641Z,49.80
2022-08-03T11:31:57.882Z,49.55
2022-08-03T11:35:09.515Z,49.39
2022-08-03T11:38:13.843Z,49.49
2022-08-03T11:41:44.810Z,49.63
2022-08-03T11:44:49.010Z,49.49
2022-08-03T11:47:56.206Z,49.72
2022-08-03T11:50:59.374Z,49.50
2022-08-03T11:54:05.316Z,49.77
2022-08-03T11:57:08.389Z,49.64
2022-08-03T12:00:26.213Z,49.47
2022-08-03T12:03:34.144Z,49.55
2022-08-03T12:06:54.917Z,49.64
2022-08-03T12:10:10.705Z,49.28
2022-08-03T12:14:44.635Z,49.76
2022-08-03T12:16:36.835Z,49.46
2022-08-03T12:19:45.880Z,49.57
2022-08-03T12:22:48.767Z,49.79
2022-08-03T12:25:53.093Z,49.63
2022-08-03T12:28:58.392Z,49.71
2022-08-03T12:32:01.570Z,49.81
2022-08-03T12:35:05.974Z,49.78
2022-08-03T12:38:08.992Z,49.53
2022-08-03T12:41:16.015Z,49.47
2022-08-03T12:44:18.980Z,49.42
2022-08-03T12:47:21.891Z,49.40
2022-08-03T12:50:26.695Z,49.61
2022-08-03T12:53:31.058Z,49.66
2022-08-03T12:56:35.613Z,49.72
2022-08-03T12:59:42.511Z,49.34
2022-08-03T13:03:38.381Z,49.69
2022-08-03T13:06:26.452Z,49.40
2022-08-03T13:09:29.753Z,49.69
2022-08-03T13:12:36.146Z,49.64
2022-08-03T13:15:47.673Z,49.39
2022-08-03T13:18:53.271Z,49.67
2022-08-03T13:22:04.001Z,49.43
2022-08-03T13:25:08.501Z,49.49
2022-08-03T13:28:14.427Z,49.51
2022-08-03T13:31:17.644Z,49.51
2022-08-03T13:34:23.474Z,49.50
2022-08-03T13:37:27.866Z,49.68
2022-08-03T13:40:36.750Z,49.47
2022-08-03T13:43:46.216Z,49.68
2022-08-03T13:46:49.673Z,49.72
2022-08-03T13:49:59.373Z,49.47
2022-08-03T13:53:04.989Z,49.57
2022-08-03T13:56:07.883Z,49.68
2022-08-03T13:59:12.085Z,49.41
2022-08-03T14:02:15.066Z,49.72
2022-08-03T14:05:18.129Z,49.63
2022-08-03T14:08:21.003Z,49.66
2022-08-03T14:11:23.898Z,49.57
2022-08-03T14:14:48.151Z,49.62
2022-08-03T14:17:51.045Z,49.43
2022-08-03T14:20:56.359Z,49.56
2022-08-03T14:24:00.357Z,49.49
2022-08-03T14:27:09.006Z,49.57
2022-08-03T14:30:14.957Z,49.41
2022-08-03T14:33:17.941Z,49.44
2022-08-03T14:36:20.820Z,49.32
2022-08-03T14:39:23.760Z,49.59
2022-08-03T14:42:26.727Z,49.57
2022-08-03T14:45:31.026Z,49.72
2022-08-03T14:50:30.828Z,49.70
2022-08-03T14:51:57.155Z,49.34
2022-08-03T14:55:01.095Z,49.29
2022-08-03T14:58:05.766Z,49.31
2022-08-03T15:02:04.701Z,49.69
2022-08-03T15:04:47.314Z,49.69
2022-08-03T15:07:50.243Z,49.44
2022-08-03T15:10:53.576Z,49.51
2022-08-03T15:13:56.490Z,49.61
2022-08-03T15:17:00.993Z,49.34
2022-08-03T15:20:22.486Z,49.55
2022-08-03T15:23:27.316Z,49.68
2022-08-03T15:26:35.385Z,49.71
2022-08-03T15:30:09.131Z,49.46
2022-08-03T15:33:07.281Z,49.46
2022-08-03T15:36:10.260Z,49.41
2022-08-03T15:39:13.201Z,49.51
2022-08-03T15:42:16.140Z,49.67
2022-08-03T15:45:20.509Z,49.64
2022-08-03T15:48:26.463Z,49.57
2022-08-03T15:51:29.781Z,49.70
2022-08-03T15:54:32.729Z,49.64
2022-08-03T15:59:10.003Z,49.46
2022-08-03T16:01:00.218Z,49.64
2022-08-03T16:04:04.640Z,49.42
2022-08-03T16:07:07.589Z,49.55
2022-08-03T16:10:16.890Z,49.67
2022-08-03T16:13:19.774Z,49.59
2022-08-03T16:16:22.626Z,49.58
2022-08-03T16:19:27.771Z,49.30
2022-08-03T16:22:30.791Z,49.26
2022-08-03T16:25:35.992Z,49.37
2022-08-03T16:28:39.154Z,49.38
2022-08-03T16:31:51.077Z,49.49
2022-08-03T16:34:56.205Z,49.47
2022-08-03T16:37:59.667Z,49.43
2022-08-03T16:41:02.578Z,49.54
2022-08-03T16:44:09.854Z,49.29
2022-08-03T16:47:22.355Z,49.44
2022-08-03T16:50:27.081Z,49.46
2022-08-03T16:53:42.137Z,49.60
2022-08-03T16:56:53.230Z,49.34
2022-08-03T16:59:56.512Z,49.45
2022-08-03T17:03:04.272Z,49.59
2022-08-03T17:06:09.462Z,49.52
2022-08-03T17:09:14.154Z,49.63
2022-08-03T17:12:17.899Z,49.67
2022-08-03T17:15:21.283Z,49.79
2022-08-03T17:18:47.925Z,49.63
2022-08-03T17:22:01.139Z,49.57
2022-08-03T17:25:07.489Z,49.65
2022-08-03T17:28:48.124Z,50.20
2022-08-03T17:31:48.915Z,50.10
2022-08-03T17:34:53.009Z,49.94
2022-08-03T17:38:03.435Z,49.92
2022-08-03T17:41:10.547Z,49.73
2022-08-03T17:44:31.178Z,49.99
2022-08-03T17:47:41.865Z,49.56
2022-08-03T17:51:04.257Z,49.82
2022-08-03T17:54:18.534Z,50.01
2022-08-03T17:57:30.286Z,49.97
2022-08-03T18:02:03.318Z,50.13
2022-08-03T18:04:42.733Z,49.92
2022-08-03T18:07:50.807Z,49.85
2022-08-03T18:11:14.352Z,50.21
2022-08-03T18:14:26.704Z,49.99
2022-08-03T18:17:55.858Z,49.97
2022-08-03T18:20:55.175Z,50.04
2022-08-03T18:23:59.552Z,49.86
2022-08-03T18:27:06.607Z,49.76
2022-08-03T18:30:12.013Z,50.15
2022-08-03T18:34:20.331Z,49.93
2022-08-03T18:36:39.833Z,50.03
2022-08-03T18:39:49.872Z,50.11
2022-08-03T18:42:55.207Z,50.27
2022-08-03T18:46:04.554Z,50.24
2022-08-03T18:49:14.129Z,50.16
2022-08-03T18:52:27.856Z,50.10
2022-08-03T18:59:02.308Z,50.12
2022-08-03T19:02:09.297Z,49.95
2022-08-03T19:05:40.102Z,50.10
2022-08-03T19:08:54.258Z,49.91
2022-08-03T19:12:14.044Z,49.92
2022-08-03T19:15:36.803Z,50.07
2022-08-03T19:18:49.565Z,50.07
2022-08-03T19:21:53.860Z,50.14
2022-08-03T19:24:57.843Z,49.96
2022-08-03T19:28:02.995Z,50.70
2022-08-03T19:31:10.265Z,50.96
2022-08-03T19:34:16.935Z,51.18
2022-08-03T19:37:22.095Z,51.24
2022-08-03T19:40:25.998Z,51.38
2022-08-03T19:43:53.210Z,51.18
2022-08-03T19:47:02.746Z,51.37
2022-08-03T19:50:14.060Z,51.26
2022-08-03T19:53:18.343Z,51.23
2022-08-03T19:56:26.499Z,51.33
2022-08-03T19:59:34.609Z,51.38
2022-08-03T20:02:43.024Z,51.27
2022-08-03T20:05:52.226Z,51.60
2022-08-03T20:08:58.679Z,51.45
2022-08-03T20:12:01.851Z,51.65
2022-08-03T20:15:07.056Z,51.52
2022-08-03T20:18:16.980Z,51.35
2022-08-03T20:21:23.489Z,51.22
2022-08-03T20:24:28.382Z,51.21
2022-08-03T20:28:07.289Z,51.21
2022-08-03T20:31:02.126Z,50.83
2022-08-03T20:34:07.509Z,50.98
2022-08-03T20:37:12.728Z,50.74
2022-08-03T20:40:15.990Z,50.68
2022-08-03T20:43:20.072Z,50.58
2022-08-03T20:46:31.377Z,50.77
2022-08-03T20:49:48.012Z,50.81
2022-08-03T20:52:51.202Z,50.83
2022-08-03T20:56:02.317Z,50.94
2022-08-03T20:59:17.963Z,51.06
2022-08-03T21:05:51.857Z,50.92
2022-08-03T21:09:06.786Z,51.25
2022-08-03T21:12:17.866Z,51.05
2022-08-03T21:13:11.192Z,50.20
2022-08-03T21:16:06.860Z,51.30
2022-08-03T21:18:51.834Z,50.82
2022-08-03T21:21:56.814Z,51.11
2022-08-03T21:25:05.082Z,51.00
2022-08-03T21:28:08.710Z,51.34
2022-08-03T21:31:12.150Z,51.18
2022-08-03T21:34:16.596Z,51.04
2022-08-03T21:37:21.281Z,51.41
2022-08-03T21:40:24.428Z,51.28
2022-08-03T21:43:27.426Z,51.26
2022-08-03T21:46:34.955Z,51.29
2022-08-03T21:50:02.613Z,51.38
2022-08-03T21:53:04.443Z,51.26
2022-08-03T21:56:10.133Z,51.16
2022-08-03T21:59:18.604Z,51.17
2022-08-03T22:02:24.367Z,51.27
2022-08-03T22:05:43.423Z,51.29
2022-08-03T22:08:49.660Z,51.51
2022-08-03T22:11:54.179Z,51.34
2022-08-03T22:15:00.554Z,51.34
2022-08-03T22:18:06.024Z,51.17
2022-08-03T22:21:12.378Z,51.48
2022-08-03T22:24:19.018Z,51.34
2022-08-03T22:27:31.406Z,51.41
2022-08-03T22:30:34.956Z,51.62
2022-08-03T22:33:39.319Z,51.62
2022-08-03T22:36:44.194Z,51.86
2022-08-03T22:39:48.858Z,51.87
2022-08-03T22:42:53.329Z,51.66
2022-08-03T22:46:10.514Z,51.63
2022-08-03T22:49:17.515Z,51.68
2022-08-03T22:52:21.350Z,51.37
2022-08-03T22:55:26.209Z,51.65
2022-08-03T22:58:29.202Z,51.52
2022-08-03T23:01:38.351Z,52.04
2022-08-03T23:04:44.732Z,51.76
2022-08-03T23:07:51.199Z,51.87
2022-08-03T23:10:58.058Z,51.81
2022-08-03T23:14:04.330Z,51.81
2022-08-03T23:17:08.406Z,51.83
2022-08-03T23:20:11.800Z,51.93
2022-08-03T23:23:16.110Z,51.77
2022-08-03T23:26:24.725Z,52.09
2022-08-03T23:29:30.317Z,51.84
2022-08-03T23:32:34.715Z,51.91
2022-08-03T23:36:28.257Z,52.07
2022-08-03T23:39:19.207Z,52.13
2022-08-03T23:42:24.850Z,52.06
2022-08-03T23:45:28.638Z,51.86
2022-08-03T23:48:31.753Z,52.00
2022-08-03T23:51:43.402Z,52.01
2022-08-03T23:54:54.282Z,52.32
2022-08-03T23:58:10.949Z,52.21
